sensor_id;sensor_type;location;lat;lon;timestamp;P1;durP1;ratioP1;P2;durP2;ratioP2
34204;SDS011;20471;49.680;20.074;2023-08-06T00:28:50;11.00;;;9.40;;
34204;SDS011;20471;49.680;20.074;2023-08-06T00:31:41;10.10;;;8.90;;
34204;SDS011;20471;49.680;20.074;2023-08-06T00:41:01;11.90;;;9.50;;
34204;SDS011;20471;49.680;20.074;2023-08-06T01:31:27;8.90;;;8.00;;
34204;SDS011;20471;49.680;20.074;2023-08-06T03:24:58;13.90;;;7.80;;
34204;SDS011;20471;49.680;20.074;2023-08-06T03:50:42;12.40;;;8.70;;
34204;SDS011;20471;49.680;20.074;2023-08-06T05:54:41;11.60;;;9.20;;
34204;SDS011;20471;49.680;20.074;2023-08-06T06:06:56;11.80;;;10.60;;
34204;SDS011;20471;49.680;20.074;2023-08-06T06:10:00;12.70;;;10.70;;
34204;SDS011;20471;49.680;20.074;2023-08-06T06:19:01;12.50;;;11.30;;
34204;SDS011;20471;49.680;20.074;2023-08-06T08:12:39;4.20;;;3.80;;
34204;SDS011;20471;49.680;20.074;2023-08-06T08:24:43;3.30;;;2.90;;
34204;SDS011;20471;49.680;20.074;2023-08-06T11:17:01;0.90;;;0.60;;
34204;SDS011;20471;49.680;20.074;2023-08-06T12:16:18;0.20;;;0.20;;
34204;SDS011;20471;49.680;20.074;2023-08-06T12:28:11;0.70;;;0.30;;
34204;SDS011;20471;49.680;20.074;2023-08-06T13:42:54;0.30;;;0.30;;
34204;SDS011;20471;49.680;20.074;2023-08-06T14:06:26;1.40;;;0.70;;
34204;SDS011;20471;49.680;20.074;2023-08-06T14:57:21;2.80;;;1.90;;
34204;SDS011;20471;49.680;20.074;2023-08-06T17:36:27;3.40;;;1.30;;
34204;SDS011;20471;49.680;20.074;2023-08-06T17:39:08;2.30;;;1.30;;
34204;SDS011;20471;49.680;20.074;2023-08-06T18:23:15;2.10;;;1.10;;
34204;SDS011;20471;49.680;20.074;2023-08-06T18:41:57;0.90;;;0.80;;
34204;SDS011;20471;49.680;20.074;2023-08-06T20:45:36;1.30;;;0.70;;
34204;SDS011;20471;49.680;20.074;2023-08-06T20:48:02;0.90;;;0.70;;
34204;SDS011;20471;49.680;20.074;2023-08-06T20:50:29;1.50;;;0.90;;
34204;SDS011;20471;49.680;20.074;2023-08-06T20:52:55;2.60;;;0.90;;
34204;SDS011;20471;49.680;20.074;2023-08-06T20:55:24;3.30;;;1.70;;
34204;SDS011;20471;49.680;20.074;2023-08-06T20:57:52;4.00;;;1.50;;
34204;SDS011;20471;49.680;20.074;2023-08-06T21:00:19;2.40;;;1.70;;
34204;SDS011;20471;49.680;20.074;2023-08-06T21:02:46;2.80;;;1.50;;
34204;SDS011;20471;49.680;20.074;2023-08-06T21:05:12;4.90;;;1.50;;
34204;SDS011;20471;49.680;20.074;2023-08-06T21:07:38;2.10;;;1.50;;
34204;SDS011;20471;49.680;20.074;2023-08-06T21:10:05;2.90;;;2.10;;
34204;SDS011;20471;49.680;20.074;2023-08-06T21:12:32;4.10;;;1.60;;
34204;SDS011;20471;49.680;20.074;2023-08-06T21:14:58;3.70;;;1.40;;
34204;SDS011;20471;49.680;20.074;2023-08-06T21:17:24;6.10;;;1.90;;
34204;SDS011;20471;49.680;20.074;2023-08-06T21:19:51;1.90;;;1.40;;
34204;SDS011;20471;49.680;20.074;2023-08-06T21:22:17;2.50;;;0.60;;
34204;SDS011;20471;49.680;20.074;2023-08-06T21:24:43;0.60;;;0.60;;
34204;SDS011;20471;49.680;20.074;2023-08-06T21:27:09;0.40;;;0.40;;
34204;SDS011;20471;49.680;20.074;2023-08-06T21:29:36;1.80;;;0.70;;
34204;SDS011;20471;49.680;20.074;2023-08-06T21:32:02;1.40;;;0.70;;
34204;SDS011;20471;49.680;20.074;2023-08-06T21:34:29;1.70;;;0.80;;
34204;SDS011;20471;49.680;20.074;2023-08-06T21:36:55;1.70;;;0.60;;
34204;SDS011;20471;49.680;20.074;2023-08-06T21:39:21;0.70;;;0.60;;
34204;SDS011;20471;49.680;20.074;2023-08-06T21:41:48;0.40;;;0.40;;
34204;SDS011;20471;49.680;20.074;2023-08-06T21:44:14;1.30;;;0.50;;
34204;SDS011;20471;49.680;20.074;2023-08-06T21:46:40;0.30;;;0.30;;
34204;SDS011;20471;49.680;20.074;2023-08-06T21:49:07;1.10;;;0.50;;
34204;SDS011;20471;49.680;20.074;2023-08-06T21:51:33;0.70;;;0.60;;
34204;SDS011;20471;49.680;20.074;2023-08-06T21:53:59;0.40;;;0.40;;
34204;SDS011;20471;49.680;20.074;2023-08-06T21:56:26;0.40;;;0.40;;
34204;SDS011;20471;49.680;20.074;2023-08-06T21:58:52;1.10;;;0.50;;
34204;SDS011;20471;49.680;20.074;2023-08-06T22:01:18;0.60;;;0.40;;
34204;SDS011;20471;49.680;20.074;2023-08-06T22:03:45;2.10;;;0.50;;
34204;SDS011;20471;49.680;20.074;2023-08-06T22:06:12;0.60;;;0.50;;
34204;SDS011;20471;49.680;20.074;2023-08-06T22:08:39;0.60;;;0.60;;
34204;SDS011;20471;49.680;20.074;2023-08-06T22:11:06;0.50;;;0.50;;
34204;SDS011;20471;49.680;20.074;2023-08-06T22:13:33;0.90;;;0.50;;
34204;SDS011;20471;49.680;20.074;2023-08-06T22:16:01;1.70;;;0.60;;
34204;SDS011;20471;49.680;20.074;2023-08-06T22:18:27;0.50;;;0.50;;
34204;SDS011;20471;49.680;20.074;2023-08-06T22:20:55;1.90;;;0.50;;
34204;SDS011;20471;49.680;20.074;2023-08-06T22:23:22;1.20;;;0.40;;
34204;SDS011;20471;49.680;20.074;2023-08-06T22:25:49;1.20;;;0.60;;
34204;SDS011;20471;49.680;20.074;2023-08-06T22:28:17;0.70;;;0.70;;
34204;SDS011;20471;49.680;20.074;2023-08-06T22:30:45;1.10;;;0.60;;
34204;SDS011;20471;49.680;20.074;2023-08-06T22:33:12;0.70;;;0.70;;
34204;SDS011;20471;49.680;20.074;2023-08-06T22:35:38;1.90;;;0.70;;
34204;SDS011;20471;49.680;20.074;2023-08-06T22:38:04;0.60;;;0.60;;
34204;SDS011;20471;49.680;20.074;2023-08-06T22:40:31;0.80;;;0.80;;
34204;SDS011;20471;49.680;20.074;2023-08-06T22:42:57;2.50;;;0.60;;
34204;SDS011;20471;49.680;20.074;2023-08-06T22:45:23;0.70;;;0.70;;
34204;SDS011;20471;49.680;20.074;2023-08-06T22:47:50;0.60;;;0.50;;
34204;SDS011;20471;49.680;20.074;2023-08-06T22:50:16;3.10;;;0.50;;
34204;SDS011;20471;49.680;20.074;2023-08-06T22:52:42;2.90;;;0.80;;
34204;SDS011;20471;49.680;20.074;2023-08-06T22:55:08;0.80;;;0.80;;
34204;SDS011;20471;49.680;20.074;2023-08-06T22:57:35;3.00;;;1.10;;
34204;SDS011;20471;49.680;20.074;2023-08-06T23:00:01;2.30;;;1.20;;
34204;SDS011;20471;49.680;20.074;2023-08-06T23:02:29;3.40;;;1.30;;
34204;SDS011;20471;49.680;20.074;2023-08-06T23:04:56;3.40;;;1.80;;
34204;SDS011;20471;49.680;20.074;2023-08-06T23:07:22;2.30;;;1.60;;
34204;SDS011;20471;49.680;20.074;2023-08-06T23:09:48;2.80;;;1.50;;
34204;SDS011;20471;49.680;20.074;2023-08-06T23:12:14;2.90;;;1.50;;
34204;SDS011;20471;49.680;20.074;2023-08-06T23:14:41;2.20;;;1.40;;
34204;SDS011;20471;49.680;20.074;2023-08-06T23:17:08;1.70;;;1.50;;
34204;SDS011;20471;49.680;20.074;2023-08-06T23:19:34;2.50;;;1.40;;
34204;SDS011;20471;49.680;20.074;2023-08-06T23:22:00;2.50;;;1.60;;
34204;SDS011;20471;49.680;20.074;2023-08-06T23:24:26;3.80;;;1.40;;
34204;SDS011;20471;49.680;20.074;2023-08-06T23:26:53;2.00;;;1.60;;
34204;SDS011;20471;49.680;20.074;2023-08-06T23:29:20;4.10;;;2.00;;
34204;SDS011;20471;49.680;20.074;2023-08-06T23:31:46;9.70;;;1.60;;
34204;SDS011;20471;49.680;20.074;2023-08-06T23:34:12;1.40;;;1.30;;
34204;SDS011;20471;49.680;20.074;2023-08-06T23:36:39;1.90;;;1.40;;
34204;SDS011;20471;49.680;20.074;2023-08-06T23:39:05;1.60;;;1.20;;
34204;SDS011;20471;49.680;20.074;2023-08-06T23:41:37;3.30;;;1.20;;
34204;SDS011;20471;49.680;20.074;2023-08-06T23:44:04;2.70;;;1.30;;
34204;SDS011;20471;49.680;20.074;2023-08-06T23:46:30;1.20;;;1.10;;
34204;SDS011;20471;49.680;20.074;2023-08-06T23:48:56;3.80;;;1.40;;
34204;SDS011;20471;49.680;20.074;2023-08-06T23:51:23;2.70;;;1.20;;
34204;SDS011;20471;49.680;20.074;2023-08-06T23:53:49;1.00;;;1.00;;
34204;SDS011;20471;49.680;20.074;2023-08-06T23:56:15;4.40;;;1.30;;
34204;SDS011;20471;49.680;20.074;2023-08-06T23:58:42;1.80;;;1.40;;
